sensor_id;sensor_type;location;lat;lon;timestamp;temperature;humidity
70928;SHT31;58587;53.034;18.576;2023-10-08T00:02:45;11.44;91.25
70928;SHT31;58587;53.034;18.576;2023-10-08T00:05:10;11.42;91.32
70928;SHT31;58587;53.034;18.576;2023-10-08T00:07:36;11.42;91.34
70928;SHT31;58587;53.034;18.576;2023-10-08T00:10:01;11.40;91.34
70928;SHT31;58587;53.034;18.576;2023-10-08T00:12:27;11.39;91.59
70928;SHT31;58587;53.034;18.576;2023-10-08T00:14:54;11.36;91.68
70928;SHT31;58587;53.034;18.576;2023-10-08T00:17:20;11.37;91.44
70928;SHT31;58587;53.034;18.576;2023-10-08T00:19:46;11.37;91.40
70928;SHT31;58587;53.034;18.576;2023-10-08T00:22:17;11.35;91.53
70928;SHT31;58587;53.034;18.576;2023-10-08T00:24:43;11.37;91.70
70928;SHT31;58587;53.034;18.576;2023-10-08T00:27:09;11.39;91.50
70928;SHT31;58587;53.034;18.576;2023-10-08T00:29:34;11.36;91.39
70928;SHT31;58587;53.034;18.576;2023-10-08T00:32:04;11.37;91.21
70928;SHT31;58587;53.034;18.576;2023-10-08T00:34:37;11.35;90.86
70928;SHT31;58587;53.034;18.576;2023-10-08T00:37:07;11.23;90.92
70928;SHT31;58587;53.034;18.576;2023-10-08T00:39:34;11.29;91.04
70928;SHT31;58587;53.034;18.576;2023-10-08T00:42:02;11.29;90.93
70928;SHT31;58587;53.034;18.576;2023-10-08T00:44:30;11.29;90.72
70928;SHT31;58587;53.034;18.576;2023-10-08T00:46:56;11.23;90.49
70928;SHT31;58587;53.034;18.576;2023-10-08T00:49:23;11.26;90.44
70928;SHT31;58587;53.034;18.576;2023-10-08T00:51:54;11.20;90.31
70928;SHT31;58587;53.034;18.576;2023-10-08T00:54:32;11.22;90.44
70928;SHT31;58587;53.034;18.576;2023-10-08T00:56:59;11.15;90.03
70928;SHT31;58587;53.034;18.576;2023-10-08T00:59:31;11.14;89.29
70928;SHT31;58587;53.034;18.576;2023-10-08T01:02:02;11.12;88.80
70928;SHT31;58587;53.034;18.576;2023-10-08T01:04:33;11.08;89.12
70928;SHT31;58587;53.034;18.576;2023-10-08T01:07:02;11.04;88.44
70928;SHT31;58587;53.034;18.576;2023-10-08T01:09:42;11.02;87.97
70928;SHT31;58587;53.034;18.576;2023-10-08T01:14:44;10.91;87.30
70928;SHT31;58587;53.034;18.576;2023-10-08T01:17:12;10.89;86.94
70928;SHT31;58587;53.034;18.576;2023-10-08T01:19:42;10.82;86.59
70928;SHT31;58587;53.034;18.576;2023-10-08T01:22:11;10.78;86.19
70928;SHT31;58587;53.034;18.576;2023-10-08T01:24:42;10.71;86.58
70928;SHT31;58587;53.034;18.576;2023-10-08T01:27:09;10.64;85.56
70928;SHT31;58587;53.034;18.576;2023-10-08T01:29:38;10.57;85.06
70928;SHT31;58587;53.034;18.576;2023-10-08T01:32:04;10.55;85.35
70928;SHT31;58587;53.034;18.576;2023-10-08T01:34:35;10.50;85.08
70928;SHT31;58587;53.034;18.576;2023-10-08T01:37:02;10.44;84.82
70928;SHT31;58587;53.034;18.576;2023-10-08T01:39:30;10.40;84.94
70928;SHT31;58587;53.034;18.576;2023-10-08T01:41:57;10.37;84.63
70928;SHT31;58587;53.034;18.576;2023-10-08T01:44:22;10.33;84.93
70928;SHT31;58587;53.034;18.576;2023-10-08T01:46:49;10.20;83.76
70928;SHT31;58587;53.034;18.576;2023-10-08T01:49:14;10.18;84.22
70928;SHT31;58587;53.034;18.576;2023-10-08T01:51:41;10.17;84.12
70928;SHT31;58587;53.034;18.576;2023-10-08T01:54:13;10.06;83.09
70928;SHT31;58587;53.034;18.576;2023-10-08T01:56:41;10.04;83.74
70928;SHT31;58587;53.034;18.576;2023-10-08T01:59:11;10.04;83.29
70928;SHT31;58587;53.034;18.576;2023-10-08T02:01:38;10.02;83.64
70928;SHT31;58587;53.034;18.576;2023-10-08T02:04:05;9.97;83.37
70928;SHT31;58587;53.034;18.576;2023-10-08T02:06:35;9.92;83.45
70928;SHT31;58587;53.034;18.576;2023-10-08T02:09:01;9.92;83.69
70928;SHT31;58587;53.034;18.576;2023-10-08T02:11:47;9.87;83.12
70928;SHT31;58587;53.034;18.576;2023-10-08T02:14:16;9.85;83.82
70928;SHT31;58587;53.034;18.576;2023-10-08T02:16:43;9.82;83.65
70928;SHT31;58587;53.034;18.576;2023-10-08T02:19:09;9.75;82.74
70928;SHT31;58587;53.034;18.576;2023-10-08T02:21:38;9.72;82.33
70928;SHT31;58587;53.034;18.576;2023-10-08T02:24:07;9.69;82.24
70928;SHT31;58587;53.034;18.576;2023-10-08T02:26:34;9.66;82.60
70928;SHT31;58587;53.034;18.576;2023-10-08T02:29:07;9.63;81.95
70928;SHT31;58587;53.034;18.576;2023-10-08T02:31:38;9.60;81.24
70928;SHT31;58587;53.034;18.576;2023-10-08T02:34:07;9.56;81.52
70928;SHT31;58587;53.034;18.576;2023-10-08T02:36:37;9.53;81.27
70928;SHT31;58587;53.034;18.576;2023-10-08T02:39:06;9.49;81.16
70928;SHT31;58587;53.034;18.576;2023-10-08T02:41:51;9.49;80.29
70928;SHT31;58587;53.034;18.576;2023-10-08T02:44:18;9.42;78.94
70928;SHT31;58587;53.034;18.576;2023-10-08T02:46:47;9.43;80.10
70928;SHT31;58587;53.034;18.576;2023-10-08T02:49:17;9.39;80.23
70928;SHT31;58587;53.034;18.576;2023-10-08T02:51:47;9.32;80.18
70928;SHT31;58587;53.034;18.576;2023-10-08T02:54:19;9.28;79.60
70928;SHT31;58587;53.034;18.576;2023-10-08T02:56:53;9.24;80.41
70928;SHT31;58587;53.034;18.576;2023-10-08T02:59:32;9.18;80.01
70928;SHT31;58587;53.034;18.576;2023-10-08T03:02:11;9.14;79.76
70928;SHT31;58587;53.034;18.576;2023-10-08T03:04:48;9.11;80.57
70928;SHT31;58587;53.034;18.576;2023-10-08T03:07:16;9.04;79.27
70928;SHT31;58587;53.034;18.576;2023-10-08T03:09:48;8.95;78.65
70928;SHT31;58587;53.034;18.576;2023-10-08T03:12:16;8.92;79.20
70928;SHT31;58587;53.034;18.576;2023-10-08T03:14:43;8.87;79.47
70928;SHT31;58587;53.034;18.576;2023-10-08T03:17:36;8.83;78.52
70928;SHT31;58587;53.034;18.576;2023-10-08T03:20:17;8.77;78.95
70928;SHT31;58587;53.034;18.576;2023-10-08T03:23:01;8.70;79.43
70928;SHT31;58587;53.034;18.576;2023-10-08T03:25:30;8.61;77.44
70928;SHT31;58587;53.034;18.576;2023-10-08T03:27:56;8.57;78.42
70928;SHT31;58587;53.034;18.576;2023-10-08T03:30:24;8.53;78.28
70928;SHT31;58587;53.034;18.576;2023-10-08T03:32:52;8.47;79.01
70928;SHT31;58587;53.034;18.576;2023-10-08T03:35:21;8.46;77.85
70928;SHT31;58587;53.034;18.576;2023-10-08T03:37:53;8.36;77.43
70928;SHT31;58587;53.034;18.576;2023-10-08T03:40:20;8.34;76.93
70928;SHT31;58587;53.034;18.576;2023-10-08T03:43:07;8.29;76.89
70928;SHT31;58587;53.034;18.576;2023-10-08T03:45:40;8.21;76.62
70928;SHT31;58587;53.034;18.576;2023-10-08T03:48:44;8.13;75.66
70928;SHT31;58587;53.034;18.576;2023-10-08T03:51:11;8.09;75.74
70928;SHT31;58587;53.034;18.576;2023-10-08T03:53:40;8.06;75.51
70928;SHT31;58587;53.034;18.576;2023-10-08T03:56:27;8.02;75.97
70928;SHT31;58587;53.034;18.576;2023-10-08T03:58:59;7.95;76.14
70928;SHT31;58587;53.034;18.576;2023-10-08T04:01:41;7.93;75.48
70928;SHT31;58587;53.034;18.576;2023-10-08T04:04:06;7.88;75.13
70928;SHT31;58587;53.034;18.576;2023-10-08T04:06:37;7.77;74.11
70928;SHT31;58587;53.034;18.576;2023-10-08T04:09:04;7.75;75.76
70928;SHT31;58587;53.034;18.576;2023-10-08T04:11:36;7.71;76.45
70928;SHT31;58587;53.034;18.576;2023-10-08T04:14:21;7.64;74.72
70928;SHT31;58587;53.034;18.576;2023-10-08T04:16:47;7.65;75.56
70928;SHT31;58587;53.034;18.576;2023-10-08T04:19:17;7.62;75.11
70928;SHT31;58587;53.034;18.576;2023-10-08T04:21:43;7.57;76.46
70928;SHT31;58587;53.034;18.576;2023-10-08T04:24:10;7.52;76.72
70928;SHT31;58587;53.034;18.576;2023-10-08T04:26:36;7.52;76.46
70928;SHT31;58587;53.034;18.576;2023-10-08T04:29:05;7.50;75.58
70928;SHT31;58587;53.034;18.576;2023-10-08T04:31:33;7.47;75.37
70928;SHT31;58587;53.034;18.576;2023-10-08T04:34:09;7.40;76.31
70928;SHT31;58587;53.034;18.576;2023-10-08T04:36:48;7.40;76.53
70928;SHT31;58587;53.034;18.576;2023-10-08T04:39:20;7.35;75.94
70928;SHT31;58587;53.034;18.576;2023-10-08T04:42:01;7.31;76.03
70928;SHT31;58587;53.034;18.576;2023-10-08T04:44:37;7.30;75.52
70928;SHT31;58587;53.034;18.576;2023-10-08T04:47:09;7.24;76.52
70928;SHT31;58587;53.034;18.576;2023-10-08T04:49:35;7.24;77.38
70928;SHT31;58587;53.034;18.576;2023-10-08T04:52:05;7.16;77.56
70928;SHT31;58587;53.034;18.576;2023-10-08T04:54:38;7.13;77.41
70928;SHT31;58587;53.034;18.576;2023-10-08T04:57:06;7.08;77.53
70928;SHT31;58587;53.034;18.576;2023-10-08T04:59:32;7.01;77.51
70928;SHT31;58587;53.034;18.576;2023-10-08T05:02:03;7.03;78.08
70928;SHT31;58587;53.034;18.576;2023-10-08T05:04:49;6.99;77.76
70928;SHT31;58587;53.034;18.576;2023-10-08T05:07:17;6.89;77.36
70928;SHT31;58587;53.034;18.576;2023-10-08T05:09:49;6.90;77.31
70928;SHT31;58587;53.034;18.576;2023-10-08T05:12:37;6.86;79.41
70928;SHT31;58587;53.034;18.576;2023-10-08T05:15:06;6.77;76.82
70928;SHT31;58587;53.034;18.576;2023-10-08T05:17:47;6.79;77.52
70928;SHT31;58587;53.034;18.576;2023-10-08T05:20:19;6.76;77.58
70928;SHT31;58587;53.034;18.576;2023-10-08T05:22:56;6.72;77.56
70928;SHT31;58587;53.034;18.576;2023-10-08T05:25:31;6.71;77.37
70928;SHT31;58587;53.034;18.576;2023-10-08T05:28:19;6.71;78.08
70928;SHT31;58587;53.034;18.576;2023-10-08T05:30:50;6.68;78.87
70928;SHT31;58587;53.034;18.576;2023-10-08T05:33:20;6.65;77.95
70928;SHT31;58587;53.034;18.576;2023-10-08T05:35:54;6.69;79.01
70928;SHT31;58587;53.034;18.576;2023-10-08T05:38:22;6.66;78.88
70928;SHT31;58587;53.034;18.576;2023-10-08T05:40:53;6.69;78.05
70928;SHT31;58587;53.034;18.576;2023-10-08T05:43:31;6.72;77.91
70928;SHT31;58587;53.034;18.576;2023-10-08T05:46:12;6.72;77.60
70928;SHT31;58587;53.034;18.576;2023-10-08T05:49:04;6.75;77.79
70928;SHT31;58587;53.034;18.576;2023-10-08T05:51:37;6.76;76.95
70928;SHT31;58587;53.034;18.576;2023-10-08T05:54:13;6.79;77.93
70928;SHT31;58587;53.034;18.576;2023-10-08T05:56:55;6.82;77.44
70928;SHT31;58587;53.034;18.576;2023-10-08T06:02:24;6.89;77.75
70928;SHT31;58587;53.034;18.576;2023-10-08T06:05:02;6.93;76.54
70928;SHT31;58587;53.034;18.576;2023-10-08T06:07:54;6.92;76.01
70928;SHT31;58587;53.034;18.576;2023-10-08T06:10:26;7.01;76.12
70928;SHT31;58587;53.034;18.576;2023-10-08T06:13:16;7.01;76.01
70928;SHT31;58587;53.034;18.576;2023-10-08T06:16:10;7.06;75.01
70928;SHT31;58587;53.034;18.576;2023-10-08T06:18:38;7.07;74.61
70928;SHT31;58587;53.034;18.576;2023-10-08T06:21:05;7.11;75.15
70928;SHT31;58587;53.034;18.576;2023-10-08T06:23:36;7.17;75.41
70928;SHT31;58587;53.034;18.576;2023-10-08T06:26:02;7.21;74.80
70928;SHT31;58587;53.034;18.576;2023-10-08T06:28:43;7.27;74.69
70928;SHT31;58587;53.034;18.576;2023-10-08T06:31:09;7.27;74.64
70928;SHT31;58587;53.034;18.576;2023-10-08T06:33:42;7.34;74.46
70928;SHT31;58587;53.034;18.576;2023-10-08T06:36:08;7.38;74.69
70928;SHT31;58587;53.034;18.576;2023-10-08T06:38:37;7.40;73.88
70928;SHT31;58587;53.034;18.576;2023-10-08T06:41:04;7.44;74.78
70928;SHT31;58587;53.034;18.576;2023-10-08T06:43:41;7.48;73.76
70928;SHT31;58587;53.034;18.576;2023-10-08T06:46:15;7.54;73.89
70928;SHT31;58587;53.034;18.576;2023-10-08T06:48:46;7.55;72.28
70928;SHT31;58587;53.034;18.576;2023-10-08T06:51:12;7.64;71.05
70928;SHT31;58587;53.034;18.576;2023-10-08T06:53:44;7.68;71.44
70928;SHT31;58587;53.034;18.576;2023-10-08T06:56:11;7.69;71.43
70928;SHT31;58587;53.034;18.576;2023-10-08T06:58:38;7.74;72.49
70928;SHT31;58587;53.034;18.576;2023-10-08T07:01:03;7.78;71.93
70928;SHT31;58587;53.034;18.576;2023-10-08T07:03:34;7.83;71.77
70928;SHT31;58587;53.034;18.576;2023-10-08T07:06:01;7.86;71.07
70928;SHT31;58587;53.034;18.576;2023-10-08T07:08:29;7.96;70.62
70928;SHT31;58587;53.034;18.576;2023-10-08T07:10:59;7.99;71.37
70928;SHT31;58587;53.034;18.576;2023-10-08T07:13:27;8.03;71.07
70928;SHT31;58587;53.034;18.576;2023-10-08T07:15:55;8.10;70.66
70928;SHT31;58587;53.034;18.576;2023-10-08T07:18:21;8.12;70.11
70928;SHT31;58587;53.034;18.576;2023-10-08T07:20:56;8.19;69.13
70928;SHT31;58587;53.034;18.576;2023-10-08T07:23:27;8.26;68.73
70928;SHT31;58587;53.034;18.576;2023-10-08T07:26:00;8.33;68.78
70928;SHT31;58587;53.034;18.576;2023-10-08T07:28:44;8.36;69.13
70928;SHT31;58587;53.034;18.576;2023-10-08T07:31:13;8.44;70.10
70928;SHT31;58587;53.034;18.576;2023-10-08T07:33:41;8.47;68.76
70928;SHT31;58587;53.034;18.576;2023-10-08T07:36:10;8.57;67.28
70928;SHT31;58587;53.034;18.576;2023-10-08T07:38:43;8.63;67.36
70928;SHT31;58587;53.034;18.576;2023-10-08T07:41:09;8.68;67.22
70928;SHT31;58587;53.034;18.576;2023-10-08T07:43:37;8.73;67.92
70928;SHT31;58587;53.034;18.576;2023-10-08T07:46:03;8.80;68.11
70928;SHT31;58587;53.034;18.576;2023-10-08T07:48:28;8.85;65.02
70928;SHT31;58587;53.034;18.576;2023-10-08T07:50:55;8.89;64.25
70928;SHT31;58587;53.034;18.576;2023-10-08T07:53:22;8.94;63.41
70928;SHT31;58587;53.034;18.576;2023-10-08T07:55:50;8.97;64.45
70928;SHT31;58587;53.034;18.576;2023-10-08T07:58:17;9.03;63.43
70928;SHT31;58587;53.034;18.576;2023-10-08T08:00:43;9.03;64.16
70928;SHT31;58587;53.034;18.576;2023-10-08T08:03:18;9.07;65.03
70928;SHT31;58587;53.034;18.576;2023-10-08T08:05:43;9.14;65.09
70928;SHT31;58587;53.034;18.576;2023-10-08T08:08:09;9.21;62.88
70928;SHT31;58587;53.034;18.576;2023-10-08T08:10:35;9.27;62.57
70928;SHT31;58587;53.034;18.576;2023-10-08T08:13:04;9.32;61.73
70928;SHT31;58587;53.034;18.576;2023-10-08T08:15:32;9.36;61.80
70928;SHT31;58587;53.034;18.576;2023-10-08T08:17:58;9.36;61.60
70928;SHT31;58587;53.034;18.576;2023-10-08T08:20:24;9.43;59.64
70928;SHT31;58587;53.034;18.576;2023-10-08T08:23:00;9.46;59.59
70928;SHT31;58587;53.034;18.576;2023-10-08T08:25:38;9.52;61.25
70928;SHT31;58587;53.034;18.576;2023-10-08T08:28:12;9.59;61.72
70928;SHT31;58587;53.034;18.576;2023-10-08T08:30:47;9.65;60.93
70928;SHT31;58587;53.034;18.576;2023-10-08T08:33:13;9.72;59.98
70928;SHT31;58587;53.034;18.576;2023-10-08T08:35:47;9.75;59.70
70928;SHT31;58587;53.034;18.576;2023-10-08T08:38:12;9.76;58.93
70928;SHT31;58587;53.034;18.576;2023-10-08T08:40:38;9.78;59.17
70928;SHT31;58587;53.034;18.576;2023-10-08T08:43:05;9.86;59.60
70928;SHT31;58587;53.034;18.576;2023-10-08T08:45:31;9.87;57.97
70928;SHT31;58587;53.034;18.576;2023-10-08T08:47:59;9.92;56.96
70928;SHT31;58587;53.034;18.576;2023-10-08T08:50:25;9.92;56.93
70928;SHT31;58587;53.034;18.576;2023-10-08T08:52:52;9.97;57.53
70928;SHT31;58587;53.034;18.576;2023-10-08T08:55:18;10.02;58.42
70928;SHT31;58587;53.034;18.576;2023-10-08T08:57:49;10.09;56.70
70928;SHT31;58587;53.034;18.576;2023-10-08T09:00:17;10.10;56.81
70928;SHT31;58587;53.034;18.576;2023-10-08T09:02:44;10.13;57.90
70928;SHT31;58587;53.034;18.576;2023-10-08T09:05:12;10.18;58.23
70928;SHT31;58587;53.034;18.576;2023-10-08T09:08:05;10.27;57.71
70928;SHT31;58587;53.034;18.576;2023-10-08T09:10:37;10.34;58.24
70928;SHT31;58587;53.034;18.576;2023-10-08T09:13:07;10.41;53.96
70928;SHT31;58587;53.034;18.576;2023-10-08T09:15:34;10.45;55.11
70928;SHT31;58587;53.034;18.576;2023-10-08T09:18:01;10.50;52.93
70928;SHT31;58587;53.034;18.576;2023-10-08T09:20:30;10.50;54.69
70928;SHT31;58587;53.034;18.576;2023-10-08T09:23:26;10.58;55.48
70928;SHT31;58587;53.034;18.576;2023-10-08T09:25:52;10.65;53.94
70928;SHT31;58587;53.034;18.576;2023-10-08T09:28:27;10.69;52.61
70928;SHT31;58587;53.034;18.576;2023-10-08T09:30:54;10.72;52.59
70928;SHT31;58587;53.034;18.576;2023-10-08T09:33:23;10.74;52.64
70928;SHT31;58587;53.034;18.576;2023-10-08T09:35:49;10.81;54.07
70928;SHT31;58587;53.034;18.576;2023-10-08T09:38:16;10.91;53.33
70928;SHT31;58587;53.034;18.576;2023-10-08T09:40:48;10.94;53.66
70928;SHT31;58587;53.034;18.576;2023-10-08T09:43:15;11.01;54.08
70928;SHT31;58587;53.034;18.576;2023-10-08T09:45:48;11.06;54.33
70928;SHT31;58587;53.034;18.576;2023-10-08T09:48:18;11.16;52.72
70928;SHT31;58587;53.034;18.576;2023-10-08T09:50:46;11.23;51.62
70928;SHT31;58587;53.034;18.576;2023-10-08T09:53:13;11.29;51.59
70928;SHT31;58587;53.034;18.576;2023-10-08T09:55:53;11.37;52.68
70928;SHT31;58587;53.034;18.576;2023-10-08T09:58:23;11.47;50.08
70928;SHT31;58587;53.034;18.576;2023-10-08T10:00:50;11.44;50.02
70928;SHT31;58587;53.034;18.576;2023-10-08T10:03:17;11.49;51.14
70928;SHT31;58587;53.034;18.576;2023-10-08T10:05:44;11.57;51.31
70928;SHT31;58587;53.034;18.576;2023-10-08T10:08:10;11.63;50.75
70928;SHT31;58587;53.034;18.576;2023-10-08T10:10:38;11.69;50.97
70928;SHT31;58587;53.034;18.576;2023-10-08T10:13:05;11.83;51.51
70928;SHT31;58587;53.034;18.576;2023-10-08T10:15:36;11.90;50.11
70928;SHT31;58587;53.034;18.576;2023-10-08T10:18:26;12.01;49.56
70928;SHT31;58587;53.034;18.576;2023-10-08T10:20:58;12.07;47.51
70928;SHT31;58587;53.034;18.576;2023-10-08T10:23:44;12.20;49.33
70928;SHT31;58587;53.034;18.576;2023-10-08T10:26:29;12.25;47.31
70928;SHT31;58587;53.034;18.576;2023-10-08T10:31:39;12.35;45.20
70928;SHT31;58587;53.034;18.576;2023-10-08T10:34:06;12.42;46.19
70928;SHT31;58587;53.034;18.576;2023-10-08T10:36:36;12.52;47.21
70928;SHT31;58587;53.034;18.576;2023-10-08T10:39:02;12.59;47.97
70928;SHT31;58587;53.034;18.576;2023-10-08T10:41:47;12.69;46.29
70928;SHT31;58587;53.034;18.576;2023-10-08T10:44:14;12.76;45.20
70928;SHT31;58587;53.034;18.576;2023-10-08T10:46:41;12.83;46.46
70928;SHT31;58587;53.034;18.576;2023-10-08T10:49:08;12.86;44.93
70928;SHT31;58587;53.034;18.576;2023-10-08T10:52:03;13.00;46.66
70928;SHT31;58587;53.034;18.576;2023-10-08T10:54:31;13.09;44.16
70928;SHT31;58587;53.034;18.576;2023-10-08T10:57:02;13.23;45.47
70928;SHT31;58587;53.034;18.576;2023-10-08T10:59:31;13.32;44.24
70928;SHT31;58587;53.034;18.576;2023-10-08T11:02:04;13.37;44.68
70928;SHT31;58587;53.034;18.576;2023-10-08T11:04:56;13.56;42.48
70928;SHT31;58587;53.034;18.576;2023-10-08T11:07:32;13.63;42.42
70928;SHT31;58587;53.034;18.576;2023-10-08T11:09:59;13.63;41.41
70928;SHT31;58587;53.034;18.576;2023-10-08T11:12:25;13.73;42.26
70928;SHT31;58587;53.034;18.576;2023-10-08T11:15:09;13.79;41.92
70928;SHT31;58587;53.034;18.576;2023-10-08T11:17:41;13.95;41.93
70928;SHT31;58587;53.034;18.576;2023-10-08T11:20:26;14.09;42.52
70928;SHT31;58587;53.034;18.576;2023-10-08T11:22:51;14.31;42.52
70928;SHT31;58587;53.034;18.576;2023-10-08T11:25:23;14.59;42.33
70928;SHT31;58587;53.034;18.576;2023-10-08T11:27:53;14.82;39.93
70928;SHT31;58587;53.034;18.576;2023-10-08T11:30:27;15.28;39.27
70928;SHT31;58587;53.034;18.576;2023-10-08T11:32:57;15.37;39.27
70928;SHT31;58587;53.034;18.576;2023-10-08T11:35:22;15.58;37.69
70928;SHT31;58587;53.034;18.576;2023-10-08T11:37:48;15.84;37.66
70928;SHT31;58587;53.034;18.576;2023-10-08T11:40:25;16.16;36.49
70928;SHT31;58587;53.034;18.576;2023-10-08T11:42:56;16.43;35.14
70928;SHT31;58587;53.034;18.576;2023-10-08T11:45:24;16.69;34.69
70928;SHT31;58587;53.034;18.576;2023-10-08T11:47:51;16.90;35.40
70928;SHT31;58587;53.034;18.576;2023-10-08T11:50:36;17.39;34.62
70928;SHT31;58587;53.034;18.576;2023-10-08T11:53:03;17.85;34.33
70928;SHT31;58587;53.034;18.576;2023-10-08T11:55:32;18.36;31.72
70928;SHT31;58587;53.034;18.576;2023-10-08T11:58:05;18.91;30.89
70928;SHT31;58587;53.034;18.576;2023-10-08T12:00:41;19.45;29.80
70928;SHT31;58587;53.034;18.576;2023-10-08T12:03:10;20.23;28.48
70928;SHT31;58587;53.034;18.576;2023-10-08T12:05:37;20.85;27.55
70928;SHT31;58587;53.034;18.576;2023-10-08T12:08:09;21.80;26.87
70928;SHT31;58587;53.034;18.576;2023-10-08T12:10:34;22.59;25.93
70928;SHT31;58587;53.034;18.576;2023-10-08T12:13:00;23.07;25.16
70928;SHT31;58587;53.034;18.576;2023-10-08T12:15:26;23.84;25.32
70928;SHT31;58587;53.034;18.576;2023-10-08T12:18:04;24.26;24.58
70928;SHT31;58587;53.034;18.576;2023-10-08T12:20:41;24.75;24.07
70928;SHT31;58587;53.034;18.576;2023-10-08T12:23:11;25.12;23.90
70928;SHT31;58587;53.034;18.576;2023-10-08T12:25:43;25.88;23.12
70928;SHT31;58587;53.034;18.576;2023-10-08T12:28:19;26.02;21.73
70928;SHT31;58587;53.034;18.576;2023-10-08T12:30:45;25.97;21.09
70928;SHT31;58587;53.034;18.576;2023-10-08T12:33:11;26.69;21.77
70928;SHT31;58587;53.034;18.576;2023-10-08T12:35:44;27.03;20.05
70928;SHT31;58587;53.034;18.576;2023-10-08T12:38:10;27.58;20.40
70928;SHT31;58587;53.034;18.576;2023-10-08T12:40:36;27.59;19.58
70928;SHT31;58587;53.034;18.576;2023-10-08T12:43:15;27.55;19.31
70928;SHT31;58587;53.034;18.576;2023-10-08T12:45:45;27.86;19.94
70928;SHT31;58587;53.034;18.576;2023-10-08T12:48:20;28.15;18.91
70928;SHT31;58587;53.034;18.576;2023-10-08T12:50:47;26.62;19.32
70928;SHT31;58587;53.034;18.576;2023-10-08T12:53:22;27.13;19.49
70928;SHT31;58587;53.034;18.576;2023-10-08T12:55:54;27.35;18.44
70928;SHT31;58587;53.034;18.576;2023-10-08T12:58:21;28.36;19.11
70928;SHT31;58587;53.034;18.576;2023-10-08T13:00:53;27.89;18.51
70928;SHT31;58587;53.034;18.576;2023-10-08T13:03:23;28.36;18.87
70928;SHT31;58587;53.034;18.576;2023-10-08T13:05:50;28.89;18.62
70928;SHT31;58587;53.034;18.576;2023-10-08T13:08:19;27.75;18.46
70928;SHT31;58587;53.034;18.576;2023-10-08T13:10:46;27.58;18.66
70928;SHT31;58587;53.034;18.576;2023-10-08T13:13:11;27.50;19.75
70928;SHT31;58587;53.034;18.576;2023-10-08T13:15:38;28.50;18.69
70928;SHT31;58587;53.034;18.576;2023-10-08T13:18:04;28.93;18.87
70928;SHT31;58587;53.034;18.576;2023-10-08T13:20:30;27.95;18.39
70928;SHT31;58587;53.034;18.576;2023-10-08T13:23:02;28.42;18.71
70928;SHT31;58587;53.034;18.576;2023-10-08T13:25:30;29.01;18.82
70928;SHT31;58587;53.034;18.576;2023-10-08T13:27:58;29.22;18.40
70928;SHT31;58587;53.034;18.576;2023-10-08T13:30:26;29.30;19.09
70928;SHT31;58587;53.034;18.576;2023-10-08T13:32:51;29.17;17.30
70928;SHT31;58587;53.034;18.576;2023-10-08T13:35:17;29.27;17.89
70928;SHT31;58587;53.034;18.576;2023-10-08T13:37:42;28.71;17.93
70928;SHT31;58587;53.034;18.576;2023-10-08T13:40:08;29.28;17.75
70928;SHT31;58587;53.034;18.576;2023-10-08T13:42:34;28.79;17.96
70928;SHT31;58587;53.034;18.576;2023-10-08T13:44:59;29.18;17.40
70928;SHT31;58587;53.034;18.576;2023-10-08T13:47:25;28.29;17.89
70928;SHT31;58587;53.034;18.576;2023-10-08T13:49:54;28.61;17.49
70928;SHT31;58587;53.034;18.576;2023-10-08T13:52:20;27.08;17.67
70928;SHT31;58587;53.034;18.576;2023-10-08T13:54:46;27.62;18.61
70928;SHT31;58587;53.034;18.576;2023-10-08T13:57:18;27.85;18.58
70928;SHT31;58587;53.034;18.576;2023-10-08T13:59:45;27.33;17.77
70928;SHT31;58587;53.034;18.576;2023-10-08T14:02:11;27.47;18.71
70928;SHT31;58587;53.034;18.576;2023-10-08T14:04:41;27.55;19.16
70928;SHT31;58587;53.034;18.576;2023-10-08T14:07:11;26.68;19.54
70928;SHT31;58587;53.034;18.576;2023-10-08T14:09:41;25.02;21.01
70928;SHT31;58587;53.034;18.576;2023-10-08T14:12:07;24.22;22.63
70928;SHT31;58587;53.034;18.576;2023-10-08T14:14:33;22.86;22.70
70928;SHT31;58587;53.034;18.576;2023-10-08T14:17:00;21.77;24.04
70928;SHT31;58587;53.034;18.576;2023-10-08T14:19:31;19.94;24.72
70928;SHT31;58587;53.034;18.576;2023-10-08T14:22:17;19.41;25.89
70928;SHT31;58587;53.034;18.576;2023-10-08T14:24:44;18.51;26.88
70928;SHT31;58587;53.034;18.576;2023-10-08T14:27:11;18.06;27.92
70928;SHT31;58587;53.034;18.576;2023-10-08T14:29:39;17.17;27.82
70928;SHT31;58587;53.034;18.576;2023-10-08T14:32:06;16.55;28.62
70928;SHT31;58587;53.034;18.576;2023-10-08T14:34:36;16.48;29.65
70928;SHT31;58587;53.034;18.576;2023-10-08T14:37:08;15.71;29.55
70928;SHT31;58587;53.034;18.576;2023-10-08T14:39:52;15.55;31.49
70928;SHT31;58587;53.034;18.576;2023-10-08T14:42:36;15.08;30.71
70928;SHT31;58587;53.034;18.576;2023-10-08T14:45:28;14.75;31.88
70928;SHT31;58587;53.034;18.576;2023-10-08T14:47:57;14.46;33.30
70928;SHT31;58587;53.034;18.576;2023-10-08T14:50:23;14.09;33.05
70928;SHT31;58587;53.034;18.576;2023-10-08T14:52:53;14.05;33.70
70928;SHT31;58587;53.034;18.576;2023-10-08T14:55:20;13.60;33.76
70928;SHT31;58587;53.034;18.576;2023-10-08T14:57:48;13.44;34.17
70928;SHT31;58587;53.034;18.576;2023-10-08T15:00:17;13.37;34.37
70928;SHT31;58587;53.034;18.576;2023-10-08T15:02:52;13.24;35.11
70928;SHT31;58587;53.034;18.576;2023-10-08T15:05:20;13.10;35.46
70928;SHT31;58587;53.034;18.576;2023-10-08T15:07:47;13.03;36.68
70928;SHT31;58587;53.034;18.576;2023-10-08T15:10:12;12.95;36.38
70928;SHT31;58587;53.034;18.576;2023-10-08T15:12:38;12.72;37.37
70928;SHT31;58587;53.034;18.576;2023-10-08T15:15:04;12.62;37.57
70928;SHT31;58587;53.034;18.576;2023-10-08T15:17:39;12.58;37.54
70928;SHT31;58587;53.034;18.576;2023-10-08T15:20:05;12.32;37.47
70928;SHT31;58587;53.034;18.576;2023-10-08T15:22:32;12.22;38.18
70928;SHT31;58587;53.034;18.576;2023-10-08T15:24:57;12.11;38.04
70928;SHT31;58587;53.034;18.576;2023-10-08T15:27:22;12.07;38.82
70928;SHT31;58587;53.034;18.576;2023-10-08T15:29:48;12.04;38.84
70928;SHT31;58587;53.034;18.576;2023-10-08T15:32:13;11.98;39.66
70928;SHT31;58587;53.034;18.576;2023-10-08T15:34:39;11.86;41.14
70928;SHT31;58587;53.034;18.576;2023-10-08T15:37:06;11.74;40.06
70928;SHT31;58587;53.034;18.576;2023-10-08T15:39:32;11.67;40.52
70928;SHT31;58587;53.034;18.576;2023-10-08T15:41:57;11.57;42.07
70928;SHT31;58587;53.034;18.576;2023-10-08T15:44:23;11.47;41.73
70928;SHT31;58587;53.034;18.576;2023-10-08T15:46:49;11.36;41.85
70928;SHT31;58587;53.034;18.576;2023-10-08T15:49:15;11.29;41.36
70928;SHT31;58587;53.034;18.576;2023-10-08T15:51:44;11.19;42.13
70928;SHT31;58587;53.034;18.576;2023-10-08T15:54:10;11.14;42.63